sensor_id;sensor_type;location;lat;lon;timestamp;pressure;altitude;pressure_sealevel;temperature;humidity
77685;BME280;66844;46.092;18.268;2023-01-26T00:00:08;100025.06;;;1.83;87.02
77685;BME280;66844;46.092;18.268;2023-01-26T00:00:39;100020.72;;;1.81;86.48
77685;BME280;66844;46.092;18.268;2023-01-26T00:01:12;100018.22;;;1.73;86.41
77685;BME280;66844;46.092;18.268;2023-01-26T00:01:43;100022.53;;;1.76;87.34
77685;BME280;66844;46.092;18.268;2023-01-26T00:02:14;100032.06;;;1.83;86.53
77685;BME280;66844;46.092;18.268;2023-01-26T00:02:45;100022.44;;;1.83;86.93
77685;BME280;66844;46.092;18.268;2023-01-26T00:03:15;100025.94;;;1.84;85.82
77685;BME280;66844;46.092;18.268;2023-01-26T00:03:46;100025.09;;;1.82;86.81
77685;BME280;66844;46.092;18.268;2023-01-26T00:04:17;100025.94;;;1.84;86.80
77685;BME280;66844;46.092;18.268;2023-01-26T00:04:47;100025.06;;;1.83;86.59
77685;BME280;66844;46.092;18.268;2023-01-26T00:05:18;100019.81;;;1.83;86.25
77685;BME280;66844;46.092;18.268;2023-01-26T00:05:48;100022.44;;;1.83;87.05
77685;BME280;66844;46.092;18.268;2023-01-26T00:06:20;100024.19;;;1.83;85.90
77685;BME280;66844;46.092;18.268;2023-01-26T00:06:51;100018.91;;;1.86;85.78
77685;BME280;66844;46.092;18.268;2023-01-26T00:07:22;100022.38;;;1.89;86.10
77685;BME280;66844;46.092;18.268;2023-01-26T00:07:52;100020.59;;;1.90;86.41
77685;BME280;66844;46.092;18.268;2023-01-26T00:08:23;100018.88;;;1.89;86.86
77685;BME280;66844;46.092;18.268;2023-01-26T00:08:55;100021.47;;;1.90;85.94
77685;BME280;66844;46.092;18.268;2023-01-26T00:09:26;100013.63;;;1.89;85.70
77685;BME280;66844;46.092;18.268;2023-01-26T00:09:57;100015.31;;;1.91;85.95
77685;BME280;66844;46.092;18.268;2023-01-26T00:10:27;100016.31;;;1.83;85.86
77685;BME280;66844;46.092;18.268;2023-01-26T00:11:03;100019.75;;;1.86;85.79
77685;BME280;66844;46.092;18.268;2023-01-26T00:11:33;100015.38;;;1.87;85.48
77685;BME280;66844;46.092;18.268;2023-01-26T00:12:04;100012.75;;;1.88;85.70
77685;BME280;66844;46.092;18.268;2023-01-26T00:12:35;100017.13;;;1.88;86.56
77685;BME280;66844;46.092;18.268;2023-01-26T00:13:09;100015.34;;;1.90;85.74
77685;BME280;66844;46.092;18.268;2023-01-26T00:13:40;100014.44;;;1.92;86.06
77685;BME280;66844;46.092;18.268;2023-01-26T00:14:10;100010.03;;;1.96;85.45
77685;BME280;66844;46.092;18.268;2023-01-26T00:14:41;100017.94;;;1.93;85.49
77685;BME280;66844;46.092;18.268;2023-01-26T00:15:20;100012.69;;;1.91;85.21
77685;BME280;66844;46.092;18.268;2023-01-26T00:15:51;100013.69;;;1.86;85.76
77685;BME280;66844;46.092;18.268;2023-01-26T00:16:22;100010.25;;;1.79;86.39
77685;BME280;66844;46.092;18.268;2023-01-26T00:16:53;100004.22;;;1.74;86.66
77685;BME280;66844;46.092;18.268;2023-01-26T00:17:23;100012.97;;;1.75;86.89
77685;BME280;66844;46.092;18.268;2023-01-26T00:17:57;100005.97;;;1.74;86.25
77685;BME280;66844;46.092;18.268;2023-01-26T00:18:28;100004.16;;;1.77;86.04
77685;BME280;66844;46.092;18.268;2023-01-26T00:19:00;100013.72;;;1.81;86.23
77685;BME280;66844;46.092;18.268;2023-01-26T00:19:30;100014.56;;;1.83;85.72
77685;BME280;66844;46.092;18.268;2023-01-26T00:20:01;100014.56;;;1.85;85.90
77685;BME280;66844;46.092;18.268;2023-01-26T00:20:31;100004.13;;;1.80;85.78
77685;BME280;66844;46.092;18.268;2023-01-26T00:21:02;100010.25;;;1.81;85.39
77685;BME280;66844;46.092;18.268;2023-01-26T00:21:33;100011.22;;;1.74;85.54
77685;BME280;66844;46.092;18.268;2023-01-26T00:22:03;100005.09;;;1.75;86.78
77685;BME280;66844;46.092;18.268;2023-01-26T00:22:34;100002.38;;;1.79;86.21
77685;BME280;66844;46.092;18.268;2023-01-26T00:23:05;100006.78;;;1.77;85.60
77685;BME280;66844;46.092;18.268;2023-01-26T00:23:35;100009.41;;;1.77;86.06
77685;BME280;66844;46.092;18.268;2023-01-26T00:24:06;100016.47;;;1.72;86.48
77685;BME280;66844;46.092;18.268;2023-01-26T00:24:36;100010.28;;;1.78;86.50
77685;BME280;66844;46.092;18.268;2023-01-26T00:25:07;100012.00;;;1.79;86.08
77685;BME280;66844;46.092;18.268;2023-01-26T00:25:38;100011.13;;;1.80;85.70
77685;BME280;66844;46.092;18.268;2023-01-26T00:26:15;100012.00;;;1.80;85.72
77685;BME280;66844;46.092;18.268;2023-01-26T00:26:46;100011.13;;;1.80;85.96
77685;BME280;66844;46.092;18.268;2023-01-26T00:27:17;100011.09;;;1.81;85.23
77685;BME280;66844;46.092;18.268;2023-01-26T00:27:48;100007.63;;;1.81;85.90
77685;BME280;66844;46.092;18.268;2023-01-26T00:28:18;100004.06;;;1.85;85.26
77685;BME280;66844;46.092;18.268;2023-01-26T00:28:49;100004.06;;;1.85;85.54
77685;BME280;66844;46.092;18.268;2023-01-26T00:29:20;100008.44;;;1.83;85.34
77685;BME280;66844;46.092;18.268;2023-01-26T00:29:50;100000.56;;;1.84;86.33
77685;BME280;66844;46.092;18.268;2023-01-26T00:30:21;99992.72;;;1.83;85.89
77685;BME280;66844;46.092;18.268;2023-01-26T00:30:51;100001.44;;;1.85;86.24
77685;BME280;66844;46.092;18.268;2023-01-26T00:31:24;99996.19;;;1.83;85.80
77685;BME280;66844;46.092;18.268;2023-01-26T00:31:55;100002.31;;;1.85;85.71
77685;BME280;66844;46.092;18.268;2023-01-26T00:32:26;100003.19;;;1.84;85.55
77685;BME280;66844;46.092;18.268;2023-01-26T00:32:56;100004.94;;;1.85;85.43
77685;BME280;66844;46.092;18.268;2023-01-26T00:33:28;100000.56;;;1.86;85.24
77685;BME280;66844;46.092;18.268;2023-01-26T00:33:58;99999.69;;;1.85;84.91
77685;BME280;66844;46.092;18.268;2023-01-26T00:34:29;99982.31;;;1.77;85.26
77685;BME280;66844;46.092;18.268;2023-01-26T00:34:59;100003.13;;;1.89;84.57
77685;BME280;66844;46.092;18.268;2023-01-26T00:35:30;99999.69;;;1.85;85.30
77685;BME280;66844;46.092;18.268;2023-01-26T00:36:00;100001.41;;;1.86;85.55
77685;BME280;66844;46.092;18.268;2023-01-26T00:36:31;100001.38;;;1.88;84.63
77685;BME280;66844;46.092;18.268;2023-01-26T00:37:01;99997.88;;;1.89;84.84
77685;BME280;66844;46.092;18.268;2023-01-26T00:37:32;99994.44;;;1.85;85.84
77685;BME280;66844;46.092;18.268;2023-01-26T00:38:03;99987.47;;;1.83;84.90
77685;BME280;66844;46.092;18.268;2023-01-26T00:38:34;99996.19;;;1.85;85.85
77685;BME280;66844;46.092;18.268;2023-01-26T00:39:05;100004.03;;;1.86;85.82
77685;BME280;66844;46.092;18.268;2023-01-26T00:39:35;99994.38;;;1.88;85.21
77685;BME280;66844;46.092;18.268;2023-01-26T00:40:06;99995.31;;;1.84;84.96
77685;BME280;66844;46.092;18.268;2023-01-26T00:40:37;99997.94;;;1.86;86.17
77685;BME280;66844;46.092;18.268;2023-01-26T00:41:09;99999.66;;;1.87;85.75
77685;BME280;66844;46.092;18.268;2023-01-26T00:42:00;99997.84;;;1.92;85.30
77685;BME280;66844;46.092;18.268;2023-01-26T00:42:36;99988.38;;;1.80;85.02
77685;BME280;66844;46.092;18.268;2023-01-26T00:43:06;100001.50;;;1.80;85.65
77685;BME280;66844;46.092;18.268;2023-01-26T00:43:37;99998.94;;;1.76;85.43
77685;BME280;66844;46.092;18.268;2023-01-26T00:44:07;99992.88;;;1.72;85.98
77685;BME280;66844;46.092;18.268;2023-01-26T00:44:41;99995.50;;;1.72;86.34
77685;BME280;66844;46.092;18.268;2023-01-26T00:45:12;99991.13;;;1.71;85.88
77685;BME280;66844;46.092;18.268;2023-01-26T00:45:42;99993.69;;;1.76;86.24
77685;BME280;66844;46.092;18.268;2023-01-26T00:46:13;99996.31;;;1.77;85.86
77685;BME280;66844;46.092;18.268;2023-01-26T00:46:44;99993.63;;;1.79;86.55
77685;BME280;66844;46.092;18.268;2023-01-26T00:47:14;99996.19;;;1.83;86.46
77685;BME280;66844;46.092;18.268;2023-01-26T00:47:45;99989.25;;;1.79;85.45
77685;BME280;66844;46.092;18.268;2023-01-26T00:48:15;99996.25;;;1.82;85.72
77685;BME280;66844;46.092;18.268;2023-01-26T00:48:46;99990.13;;;1.80;86.10
77685;BME280;66844;46.092;18.268;2023-01-26T00:49:17;99995.31;;;1.84;85.47
77685;BME280;66844;46.092;18.268;2023-01-26T00:49:47;99992.66;;;1.87;85.33
77685;BME280;66844;46.092;18.268;2023-01-26T00:50:18;99994.44;;;1.85;85.83
77685;BME280;66844;46.092;18.268;2023-01-26T00:50:52;99983.94;;;1.85;86.41
77685;BME280;66844;46.092;18.268;2023-01-26T00:51:22;99990.00;;;1.89;85.35
77685;BME280;66844;46.092;18.268;2023-01-26T00:51:53;99974.50;;;1.72;85.38
77685;BME280;66844;46.092;18.268;2023-01-26T00:52:23;99992.63;;;1.89;86.42
77685;BME280;66844;46.092;18.268;2023-01-26T00:52:54;99990.88;;;1.89;85.80
77685;BME280;66844;46.092;18.268;2023-01-26T00:53:24;99989.09;;;1.93;85.76
77685;BME280;66844;46.092;18.268;2023-01-26T00:53:55;99996.91;;;1.94;85.55
77685;BME280;66844;46.092;18.268;2023-01-26T00:54:26;99980.41;;;1.88;85.68
77685;BME280;66844;46.092;18.268;2023-01-26T00:54:57;99987.44;;;1.86;86.28
77685;BME280;66844;46.092;18.268;2023-01-26T00:55:28;99982.16;;;1.89;86.17
77685;BME280;66844;46.092;18.268;2023-01-26T00:56:01;99985.59;;;1.91;85.75
77685;BME280;66844;46.092;18.268;2023-01-26T00:56:31;99982.16;;;1.89;84.99
77685;BME280;66844;46.092;18.268;2023-01-26T00:57:02;99980.44;;;1.85;85.12
77685;BME280;66844;46.092;18.268;2023-01-26T00:57:33;99981.34;;;1.84;84.96
77685;BME280;66844;46.092;18.268;2023-01-26T00:58:06;99983.97;;;1.84;85.37
77685;BME280;66844;46.092;18.268;2023-01-26T00:58:37;99983.03;;;1.86;84.77
77685;BME280;66844;46.092;18.268;2023-01-26T00:59:09;99985.66;;;1.86;85.96
77685;BME280;66844;46.092;18.268;2023-01-26T00:59:40;99986.53;;;1.88;85.60
77685;BME280;66844;46.092;18.268;2023-01-26T01:00:11;99981.31;;;1.85;85.77
77685;BME280;66844;46.092;18.268;2023-01-26T01:00:45;99980.41;;;1.89;86.13
77685;BME280;66844;46.092;18.268;2023-01-26T01:01:16;99975.16;;;1.88;85.00
77685;BME280;66844;46.092;18.268;2023-01-26T01:01:47;99977.78;;;1.88;85.74
77685;BME280;66844;46.092;18.268;2023-01-26T01:02:18;99962.09;;;1.85;85.35
77685;BME280;66844;46.092;18.268;2023-01-26T01:02:49;99981.22;;;1.90;85.09
77685;BME280;66844;46.092;18.268;2023-01-26T01:03:20;99978.66;;;1.88;84.19
77685;BME280;66844;46.092;18.268;2023-01-26T01:03:50;99976.09;;;1.85;85.24
77685;BME280;66844;46.092;18.268;2023-01-26T01:04:21;99970.06;;;1.77;84.69
77685;BME280;66844;46.092;18.268;2023-01-26T01:04:51;99983.13;;;1.80;85.36
77685;BME280;66844;46.092;18.268;2023-01-26T01:05:24;99965.75;;;1.73;85.14
77685;BME280;66844;46.092;18.268;2023-01-26T01:05:54;99973.63;;;1.72;85.24
77685;BME280;66844;46.092;18.268;2023-01-26T01:06:25;99973.56;;;1.78;84.57
77685;BME280;66844;46.092;18.268;2023-01-26T01:06:57;99977.03;;;1.80;85.05
77685;BME280;66844;46.092;18.268;2023-01-26T01:07:27;99974.38;;;1.81;84.24
77685;BME280;66844;46.092;18.268;2023-01-26T01:07:58;99977.84;;;1.83;84.34
77685;BME280;66844;46.092;18.268;2023-01-26T01:08:29;99970.84;;;1.82;85.02
77685;BME280;66844;46.092;18.268;2023-01-26T01:08:59;99976.97;;;1.84;83.90
77685;BME280;66844;46.092;18.268;2023-01-26T01:09:30;99972.59;;;1.83;84.99
77685;BME280;66844;46.092;18.268;2023-01-26T01:10:00;99969.91;;;1.86;85.13
77685;BME280;66844;46.092;18.268;2023-01-26T01:10:31;99973.41;;;1.87;83.97
77685;BME280;66844;46.092;18.268;2023-01-26T01:11:08;99978.66;;;1.87;84.49
77685;BME280;66844;46.092;18.268;2023-01-26T01:11:39;99972.53;;;1.86;84.90
77685;BME280;66844;46.092;18.268;2023-01-26T01:12:09;99967.38;;;1.82;84.85
77685;BME280;66844;46.092;18.268;2023-01-26T01:12:40;99971.72;;;1.86;84.49
77685;BME280;66844;46.092;18.268;2023-01-26T01:13:10;99969.97;;;1.83;84.88
77685;BME280;66844;46.092;18.268;2023-01-26T01:13:41;99977.03;;;1.80;84.41
77685;BME280;66844;46.092;18.268;2023-01-26T01:14:12;99971.00;;;1.75;85.70
77685;BME280;66844;46.092;18.268;2023-01-26T01:14:43;99970.09;;;1.76;84.81
77685;BME280;66844;46.092;18.268;2023-01-26T01:15:14;99958.81;;;1.71;85.74
77685;BME280;66844;46.092;18.268;2023-01-26T01:15:44;99965.84;;;1.67;85.79
77685;BME280;66844;46.092;18.268;2023-01-26T01:16:15;99962.31;;;1.68;85.53
77685;BME280;66844;46.092;18.268;2023-01-26T01:16:46;99960.63;;;1.67;84.81
77685;BME280;66844;46.092;18.268;2023-01-26T01:17:16;99967.56;;;1.70;84.59
77685;BME280;66844;46.092;18.268;2023-01-26T01:17:47;99955.38;;;1.64;84.99
77685;BME280;66844;46.092;18.268;2023-01-26T01:18:17;99962.38;;;1.67;85.94
77685;BME280;66844;46.092;18.268;2023-01-26T01:18:52;99969.31;;;1.68;85.15
77685;BME280;66844;46.092;18.268;2023-01-26T01:19:24;99960.72;;;1.60;85.52
77685;BME280;66844;46.092;18.268;2023-01-26T01:19:54;99966.81;;;1.60;85.65
77685;BME280;66844;46.092;18.268;2023-01-26T01:20:25;99967.66;;;1.62;85.86
77685;BME280;66844;46.092;18.268;2023-01-26T01:20:55;99967.63;;;1.65;86.55
77685;BME280;66844;46.092;18.268;2023-01-26T01:21:26;99961.50;;;1.66;85.99
77685;BME280;66844;46.092;18.268;2023-01-26T01:21:57;99957.91;;;1.72;86.22
77685;BME280;66844;46.092;18.268;2023-01-26T01:22:27;99964.06;;;1.69;85.55
77685;BME280;66844;46.092;18.268;2023-01-26T01:22:58;99962.28;;;1.71;86.20
77685;BME280;66844;46.092;18.268;2023-01-26T01:23:28;99957.00;;;1.74;85.75
77685;BME280;66844;46.092;18.268;2023-01-26T01:23:59;99955.28;;;1.72;85.86
77685;BME280;66844;46.092;18.268;2023-01-26T01:24:29;99958.75;;;1.74;85.83
77685;BME280;66844;46.092;18.268;2023-01-26T01:25:01;99959.63;;;1.74;86.54
77685;BME280;66844;46.092;18.268;2023-01-26T01:25:31;99956.19;;;1.71;86.20
77685;BME280;66844;46.092;18.268;2023-01-26T01:26:04;99956.16;;;1.72;86.62
77685;BME280;66844;46.092;18.268;2023-01-26T01:26:35;99953.56;;;1.71;86.09
77685;BME280;66844;46.092;18.268;2023-01-26T01:27:05;99958.81;;;1.71;87.04
77685;BME280;66844;46.092;18.268;2023-01-26T01:27:36;99959.69;;;1.70;86.54
77685;BME280;66844;46.092;18.268;2023-01-26T01:28:06;99958.88;;;1.66;86.20
77685;BME280;66844;46.092;18.268;2023-01-26T01:28:37;99962.38;;;1.67;87.10
77685;BME280;66844;46.092;18.268;2023-01-26T01:29:13;99959.75;;;1.65;86.27
77685;BME280;66844;46.092;18.268;2023-01-26T01:29:44;99959.78;;;1.64;86.73
77685;BME280;66844;46.092;18.268;2023-01-26T01:30:14;99955.38;;;1.64;86.70
77685;BME280;66844;46.092;18.268;2023-01-26T01:30:45;99951.06;;;1.62;87.36
77685;BME280;66844;46.092;18.268;2023-01-26T01:31:16;99954.59;;;1.59;87.63
77685;BME280;66844;46.092;18.268;2023-01-26T01:31:46;99951.28;;;1.46;87.36
77685;BME280;66844;46.092;18.268;2023-01-26T01:32:18;99954.66;;;1.53;87.88
77685;BME280;66844;46.092;18.268;2023-01-26T01:32:48;99949.47;;;1.52;87.42
77685;BME280;66844;46.092;18.268;2023-01-26T01:33:23;99949.47;;;1.52;88.07
77685;BME280;66844;46.092;18.268;2023-01-26T01:33:55;99954.59;;;1.59;87.41
77685;BME280;66844;46.092;18.268;2023-01-26T01:34:26;99964.19;;;1.60;87.80
77685;BME280;66844;46.092;18.268;2023-01-26T01:34:56;99959.00;;;1.57;88.07
77685;BME280;66844;46.092;18.268;2023-01-26T01:35:27;99951.97;;;1.59;87.83
77685;BME280;66844;46.092;18.268;2023-01-26T01:36:01;99950.28;;;1.55;88.10
77685;BME280;66844;46.092;18.268;2023-01-26T01:36:32;99953.84;;;1.53;87.96
77685;BME280;66844;46.092;18.268;2023-01-26T01:37:02;99954.75;;;1.49;88.66
77685;BME280;66844;46.092;18.268;2023-01-26T01:37:33;99959.91;;;1.53;88.55
77685;BME280;66844;46.092;18.268;2023-01-26T01:38:04;99946.84;;;1.50;87.90
77685;BME280;66844;46.092;18.268;2023-01-26T01:38:34;99955.59;;;1.52;88.49
77685;BME280;66844;46.092;18.268;2023-01-26T01:39:05;99950.34;;;1.49;87.99
77685;BME280;66844;46.092;18.268;2023-01-26T01:39:35;99947.72;;;1.49;89.14
77685;BME280;66844;46.092;18.268;2023-01-26T01:40:11;99948.59;;;1.50;88.45
77685;BME280;66844;46.092;18.268;2023-01-26T01:40:42;99953.91;;;1.46;88.46
77685;BME280;66844;46.092;18.268;2023-01-26T01:41:16;99947.81;;;1.44;88.60
77685;BME280;66844;46.092;18.268;2023-01-26T01:41:46;99942.59;;;1.41;87.97
77685;BME280;66844;46.092;18.268;2023-01-26T01:42:17;99945.22;;;1.43;88.86
77685;BME280;66844;46.092;18.268;2023-01-26T01:42:49;99944.34;;;1.44;87.72
77685;BME280;66844;46.092;18.268;2023-01-26T01:43:20;99939.09;;;1.42;87.74
77685;BME280;66844;46.092;18.268;2023-01-26T01:43:50;99945.13;;;1.49;88.18
77685;BME280;66844;46.092;18.268;2023-01-26T01:44:23;99945.16;;;1.46;88.01
77685;BME280;66844;46.092;18.268;2023-01-26T01:45:54;99923.53;;;1.30;87.91
77685;BME280;66844;46.092;18.268;2023-01-26T01:46:33;99939.13;;;1.41;88.04
77685;BME280;66844;46.092;18.268;2023-01-26T01:47:16;99933.94;;;1.36;88.20
77685;BME280;66844;46.092;18.268;2023-01-26T01:48:02;99940.91;;;1.39;88.69
77685;BME280;66844;46.092;18.268;2023-01-26T01:48:50;99931.31;;;1.36;87.71
77685;BME280;66844;46.092;18.268;2023-01-26T01:49:29;99934.78;;;1.40;88.51
77685;BME280;66844;46.092;18.268;2023-01-26T01:50:01;99941.75;;;1.39;87.50
77685;BME280;66844;46.092;18.268;2023-01-26T01:50:36;99943.56;;;1.34;88.28
77685;BME280;66844;46.092;18.268;2023-01-26T01:51:15;99946.19;;;1.37;87.76
77685;BME280;66844;46.092;18.268;2023-01-26T01:52:09;99942.75;;;1.32;88.84
77685;BME280;66844;46.092;18.268;2023-01-26T01:52:41;99944.47;;;1.32;89.36
77685;BME280;66844;46.092;18.268;2023-01-26T01:53:17;99937.50;;;1.31;89.11
77685;BME280;66844;46.092;18.268;2023-01-26T01:53:56;99936.63;;;1.30;88.59
77685;BME280;66844;46.092;18.268;2023-01-26T01:54:38;99938.28;;;1.39;88.19
77685;BME280;66844;46.092;18.268;2023-01-26T01:55:12;99945.25;;;1.40;88.97
77685;BME280;66844;46.092;18.268;2023-01-26T01:55:45;99943.56;;;1.34;89.06
77685;BME280;66844;46.092;18.268;2023-01-26T01:56:22;99939.25;;;1.30;88.83
77685;BME280;66844;46.092;18.268;2023-01-26T01:56:57;99948.94;;;1.25;88.54
77685;BME280;66844;46.092;18.268;2023-01-26T01:57:33;99938.44;;;1.27;88.37
77685;BME280;66844;46.092;18.268;2023-01-26T01:58:13;99935.78;;;1.30;88.33
77685;BME280;66844;46.092;18.268;2023-01-26T01:58:45;99935.81;;;1.28;88.68
77685;BME280;66844;46.092;18.268;2023-01-26T01:59:16;99931.38;;;1.32;89.39
77685;BME280;66844;46.092;18.268;2023-01-26T01:59:58;99941.00;;;1.33;89.09
77685;BME280;66844;46.092;18.268;2023-01-26T02:00:30;99933.97;;;1.35;88.84
77685;BME280;66844;46.092;18.268;2023-01-26T02:01:00;99927.88;;;1.33;89.33
77685;BME280;66844;46.092;18.268;2023-01-26T02:01:31;99927.06;;;1.29;88.38
77685;BME280;66844;46.092;18.268;2023-01-26T02:02:02;99928.75;;;1.33;88.26
77685;BME280;66844;46.092;18.268;2023-01-26T02:02:33;99914.78;;;1.33;87.85
77685;BME280;66844;46.092;18.268;2023-01-26T02:03:07;99925.22;;;1.34;88.67
77685;BME280;66844;46.092;18.268;2023-01-26T02:03:46;99922.69;;;1.28;88.59
77685;BME280;66844;46.092;18.268;2023-01-26T02:04:20;99927.94;;;1.30;88.87
77685;BME280;66844;46.092;18.268;2023-01-26T02:04:54;99917.44;;;1.28;89.45
77685;BME280;66844;46.092;18.268;2023-01-26T02:05:32;99924.41;;;1.31;89.45
77685;BME280;66844;46.092;18.268;2023-01-26T02:06:14;99924.38;;;1.34;88.82
77685;BME280;66844;46.092;18.268;2023-01-26T02:06:51;99913.97;;;1.29;88.40
77685;BME280;66844;46.092;18.268;2023-01-26T02:07:22;99920.91;;;1.30;88.62
77685;BME280;66844;46.092;18.268;2023-01-26T02:07:53;99919.19;;;1.29;88.82
77685;BME280;66844;46.092;18.268;2023-01-26T02:08:29;99918.28;;;1.32;88.90
77685;BME280;66844;46.092;18.268;2023-01-26T02:09:03;99913.19;;;1.23;88.83
77685;BME280;66844;46.092;18.268;2023-01-26T02:09:37;99910.47;;;1.27;88.13
77685;BME280;66844;46.092;18.268;2023-01-26T02:10:27;99915.66;;;1.32;87.79
77685;BME280;66844;46.092;18.268;2023-01-26T02:11:04;99919.16;;;1.34;88.18
77685;BME280;66844;46.092;18.268;2023-01-26T02:11:40;99909.50;;;1.36;87.95
77685;BME280;66844;46.092;18.268;2023-01-26T02:12:18;99916.47;;;1.35;87.89
77685;BME280;66844;46.092;18.268;2023-01-26T02:12:53;99917.28;;;1.40;87.18
77685;BME280;66844;46.092;18.268;2023-01-26T02:13:26;99915.53;;;1.41;87.66
77685;BME280;66844;46.092;18.268;2023-01-26T02:13:59;99919.06;;;1.38;87.57
77685;BME280;66844;46.092;18.268;2023-01-26T02:14:32;99917.34;;;1.36;87.32
77685;BME280;66844;46.092;18.268;2023-01-26T02:15:03;99912.09;;;1.37;88.14
77685;BME280;66844;46.092;18.268;2023-01-26T02:15:34;99910.31;;;1.38;88.04
77685;BME280;66844;46.092;18.268;2023-01-26T02:16:05;99899.88;;;1.35;88.04
77685;BME280;66844;46.092;18.268;2023-01-26T02:16:36;99906.88;;;1.36;87.27
77685;BME280;66844;46.092;18.268;2023-01-26T02:17:09;99907.69;;;1.41;87.49
77685;BME280;66844;46.092;18.268;2023-01-26T02:17:39;99902.53;;;1.33;87.24
77685;BME280;66844;46.092;18.268;2023-01-26T02:18:10;99904.28;;;1.33;87.57
77685;BME280;66844;46.092;18.268;2023-01-26T02:18:42;99906.03;;;1.32;88.43
77685;BME280;66844;46.092;18.268;2023-01-26T02:19:30;99904.25;;;1.34;88.07
77685;BME280;66844;46.092;18.268;2023-01-26T02:20:19;99904.34;;;1.30;88.09
77685;BME280;66844;46.092;18.268;2023-01-26T02:21:02;99899.94;;;1.30;87.45
77685;BME280;66844;46.092;18.268;2023-01-26T02:21:36;99904.25;;;1.34;87.89
77685;BME280;66844;46.092;18.268;2023-01-26T02:22:19;99902.53;;;1.33;87.99
77685;BME280;66844;46.092;18.268;2023-01-26T02:24:24;99901.63;;;1.37;87.76
77685;BME280;66844;46.092;18.268;2023-01-26T02:25:06;99904.25;;;1.36;87.18
77685;BME280;66844;46.092;18.268;2023-01-26T02:26:05;99900.69;;;1.40;86.99
77685;BME280;66844;46.092;18.268;2023-01-26T02:26:37;99886.00;;;1.30;86.80
77685;BME280;66844;46.092;18.268;2023-01-26T02:27:07;99906.88;;;1.34;86.92
77685;BME280;66844;46.092;18.268;2023-01-26T02:27:39;99901.63;;;1.34;86.68
77685;BME280;66844;46.092;18.268;2023-01-26T02:28:09;99896.38;;;1.37;86.85
77685;BME280;66844;46.092;18.268;2023-01-26T02:28:43;99897.22;;;1.39;86.84
77685;BME280;66844;46.092;18.268;2023-01-26T02:29:13;99901.63;;;1.36;86.76
77685;BME280;66844;46.092;18.268;2023-01-26T02:29:44;99893.81;;;1.33;86.75
77685;BME280;66844;46.092;18.268;2023-01-26T02:30:15;99894.69;;;1.30;86.02
77685;BME280;66844;46.092;18.268;2023-01-26T02:30:46;99892.06;;;1.32;86.92
77685;BME280;66844;46.092;18.268;2023-01-26T02:31:17;99901.63;;;1.36;86.59
77685;BME280;66844;46.092;18.268;2023-01-26T02:31:48;99888.56;;;1.31;86.42
77685;BME280;66844;46.092;18.268;2023-01-26T02:32:19;99894.63;;;1.36;85.98
77685;BME280;66844;46.092;18.268;2023-01-26T02:32:49;99893.75;;;1.37;86.31
77685;BME280;66844;46.092;18.268;2023-01-26T02:33:25;99892.94;;;1.34;86.24
77685;BME280;66844;46.092;18.268;2023-01-26T02:33:56;99891.16;;;1.36;86.70
77685;BME280;66844;46.092;18.268;2023-01-26T02:34:27;99888.56;;;1.33;86.60
77685;BME280;66844;46.092;18.268;2023-01-26T02:34:58;99892.03;;;1.35;86.29
77685;BME280;66844;46.092;18.268;2023-01-26T02:35:28;99891.16;;;1.34;86.52
77685;BME280;66844;46.092;18.268;2023-01-26T02:36:00;99896.38;;;1.36;86.36
77685;BME280;66844;46.092;18.268;2023-01-26T02:36:33;99892.00;;;1.36;86.41
77685;BME280;66844;46.092;18.268;2023-01-26T02:37:03;99892.88;;;1.37;86.77
77685;BME280;66844;46.092;18.268;2023-01-26T02:37:34;99892.88;;;1.37;86.12
77685;BME280;66844;46.092;18.268;2023-01-26T02:38:07;99891.16;;;1.34;86.74
77685;BME280;66844;46.092;18.268;2023-01-26T02:39:03;99887.66;;;1.37;86.84
77685;BME280;66844;46.092;18.268;2023-01-26T02:40:06;99878.81;;;1.42;86.44
77685;BME280;66844;46.092;18.268;2023-01-26T02:40:54;99891.03;;;1.42;85.85
77685;BME280;66844;46.092;18.268;2023-01-26T02:41:26;99881.47;;;1.39;85.50
77685;BME280;66844;46.092;18.268;2023-01-26T02:42:15;99880.59;;;1.40;86.44
77685;BME280;66844;46.092;18.268;2023-01-26T02:43:05;99884.09;;;1.41;85.80
77685;BME280;66844;46.092;18.268;2023-01-26T02:43:35;99875.44;;;1.34;85.56
77685;BME280;66844;46.092;18.268;2023-01-26T02:44:10;99876.22;;;1.41;85.08
77685;BME280;66844;46.092;18.268;2023-01-26T02:44:42;99874.50;;;1.38;85.15
77685;BME280;66844;46.092;18.268;2023-01-26T02:45:15;99869.25;;;1.38;85.53
77685;BME280;66844;46.092;18.268;2023-01-26T02:45:46;99870.16;;;1.37;85.29
77685;BME280;66844;46.092;18.268;2023-01-26T02:46:17;99878.84;;;1.41;85.16
77685;BME280;66844;46.092;18.268;2023-01-26T02:46:47;99872.69;;;1.42;85.70
77685;BME280;66844;46.092;18.268;2023-01-26T02:47:21;99871.81;;;1.43;85.17
77685;BME280;66844;46.092;18.268;2023-01-26T02:47:51;99868.31;;;1.42;85.53
77685;BME280;66844;46.092;18.268;2023-01-26T02:48:22;99863.13;;;1.41;85.67
77685;BME280;66844;46.092;18.268;2023-01-26T02:49:11;99862.19;;;1.43;84.46
77685;BME280;66844;46.092;18.268;2023-01-26T02:50:00;99859.59;;;1.42;85.11
77685;BME280;66844;46.092;18.268;2023-01-26T02:50:31;99868.38;;;1.38;84.75
77685;BME280;66844;46.092;18.268;2023-01-26T02:51:02;99863.13;;;1.38;84.86
77685;BME280;66844;46.092;18.268;2023-01-26T02:51:33;99860.50;;;1.39;85.02
77685;BME280;66844;46.092;18.268;2023-01-26T02:52:04;99854.44;;;1.36;85.19
77685;BME280;66844;46.092;18.268;2023-01-26T02:52:35;99857.03;;;1.39;84.38
77685;BME280;66844;46.092;18.268;2023-01-26T02:53:05;99858.75;;;1.40;84.14
77685;BME280;66844;46.092;18.268;2023-01-26T02:53:36;99860.53;;;1.38;84.58
77685;BME280;66844;46.092;18.268;2023-01-26T02:54:06;99852.69;;;1.36;84.90
77685;BME280;66844;46.092;18.268;2023-01-26T02:54:37;99854.44;;;1.37;84.99
77685;BME280;66844;46.092;18.268;2023-01-26T02:55:40;99856.97;;;1.42;84.34
77685;BME280;66844;46.092;18.268;2023-01-26T02:56:10;99851.72;;;1.43;83.68